createdAt,value
2022-12-14T00:02:05.278Z,7.90
2022-12-14T00:04:34.516Z,7.90
2022-12-14T00:07:02.341Z,7.90
2022-12-14T00:09:30.101Z,7.90
2022-12-14T00:11:57.884Z,7.90
2022-12-14T00:14:25.766Z,7.90
2022-12-14T00:16:53.550Z,7.90
2022-12-14T00:19:21.790Z,7.90
2022-12-14T00:21:51.079Z,7.90
2022-12-14T00:24:18.917Z,7.90
2022-12-14T00:26:46.659Z,7.90
2022-12-14T00:29:14.419Z,7.90
2022-12-14T00:31:42.274Z,7.90
2022-12-14T00:34:10.041Z,7.90
2022-12-14T00:36:38.161Z,7.90
2022-12-14T00:39:07.409Z,7.90
2022-12-14T00:41:35.560Z,7.80
2022-12-14T00:44:04.692Z,7.80
2022-12-14T00:46:32.675Z,7.80
2022-12-14T00:49:00.393Z,7.90
2022-12-14T00:51:29.162Z,7.90
2022-12-14T00:53:57.104Z,7.90
2022-12-14T00:56:26.459Z,7.90
2022-12-14T00:58:54.759Z,7.90
2022-12-14T01:01:22.844Z,7.90
2022-12-14T01:03:51.122Z,7.80
2022-12-14T01:06:20.995Z,7.70
2022-12-14T01:08:49.644Z,7.80
2022-12-14T01:11:17.417Z,7.80
2022-12-14T01:13:49.720Z,7.70
2022-12-14T01:16:18.227Z,7.70
2022-12-14T01:18:46.053Z,7.80
2022-12-14T01:21:15.798Z,7.80
2022-12-14T01:23:44.789Z,7.90
2022-12-14T01:26:13.708Z,7.90
2022-12-14T01:28:42.262Z,7.90
2022-12-14T01:31:14.591Z,8.00
2022-12-14T01:33:42.585Z,8.00
2022-12-14T01:36:12.326Z,8.00
2022-12-14T01:38:40.188Z,7.90
2022-12-14T01:41:09.706Z,7.90
2022-12-14T01:43:48.711Z,7.90
2022-12-14T01:46:25.017Z,7.90
2022-12-14T01:48:56.327Z,8.00
2022-12-14T01:51:27.227Z,8.00
2022-12-14T01:53:57.066Z,8.00
2022-12-14T01:56:25.179Z,8.00
2022-12-14T01:58:53.678Z,8.00
2022-12-14T02:01:22.880Z,8.00
2022-12-14T02:03:53.406Z,7.90
2022-12-14T02:06:26.326Z,7.80
2022-12-14T02:08:55.706Z,7.80
2022-12-14T02:11:31.546Z,7.80
2022-12-14T02:13:59.391Z,7.90
2022-12-14T02:16:28.993Z,7.90
2022-12-14T02:18:56.807Z,7.90
2022-12-14T02:21:36.947Z,7.90
2022-12-14T02:24:42.726Z,7.90
2022-12-14T02:27:25.665Z,7.90
2022-12-14T02:30:07.574Z,8.00
2022-12-14T02:32:58.485Z,8.00
2022-12-14T02:35:38.078Z,8.00
2022-12-14T02:38:15.683Z,8.00
2022-12-14T02:40:57.891Z,8.00
2022-12-14T02:43:31.598Z,8.00
2022-12-14T02:46:10.083Z,8.00
2022-12-14T02:48:41.395Z,8.00
2022-12-14T02:51:18.637Z,8.00
2022-12-14T02:53:51.689Z,7.90
2022-12-14T02:56:26.076Z,7.90
2022-12-14T02:58:54.199Z,8.00
2022-12-14T03:01:28.008Z,8.00
2022-12-14T03:03:56.079Z,7.90
2022-12-14T03:06:28.089Z,8.00
2022-12-14T03:08:59.435Z,7.90
2022-12-14T03:11:34.756Z,7.90
2022-12-14T03:14:08.455Z,7.90
2022-12-14T03:16:41.772Z,7.90
2022-12-14T03:19:15.015Z,8.00
2022-12-14T03:21:50.117Z,8.00
2022-12-14T03:24:23.906Z,7.90
2022-12-14T03:26:58.096Z,8.00
2022-12-14T03:29:32.066Z,8.00
2022-12-14T03:32:05.916Z,8.00
2022-12-14T03:34:38.604Z,8.00
2022-12-14T03:37:12.925Z,8.00
2022-12-14T03:39:44.236Z,8.00
2022-12-14T03:42:17.968Z,7.90
2022-12-14T03:44:50.065Z,7.90
2022-12-14T03:47:31.986Z,7.90
2022-12-14T03:50:02.867Z,7.90
2022-12-14T03:52:36.704Z,7.90
2022-12-14T03:55:18.425Z,7.90
2022-12-14T03:58:05.955Z,7.90
2022-12-14T04:00:40.781Z,7.90
2022-12-14T04:03:16.762Z,7.90
2022-12-14T04:05:49.797Z,7.90
2022-12-14T04:08:27.485Z,7.90
2022-12-14T04:11:16.808Z,7.90
2022-12-14T04:14:26.595Z,7.90
2022-12-14T04:17:14.396Z,7.90
2022-12-14T04:19:50.075Z,7.90
2022-12-14T04:22:22.185Z,7.90
2022-12-14T04:25:16.124Z,7.90
2022-12-14T04:27:48.725Z,7.90
2022-12-14T04:30:17.496Z,7.90
2022-12-14T04:32:49.794Z,8.00
2022-12-14T04:35:26.225Z,8.00
2022-12-14T04:38:01.624Z,8.00
2022-12-14T04:40:34.086Z,8.00
2022-12-14T04:43:08.761Z,7.90
2022-12-14T04:45:42.890Z,8.00
2022-12-14T04:48:25.875Z,8.10
2022-12-14T04:51:03.455Z,8.10
2022-12-14T04:53:35.353Z,8.10
2022-12-14T04:56:11.025Z,7.90
2022-12-14T04:58:40.704Z,7.90
2022-12-14T05:01:33.405Z,7.90
2022-12-14T05:04:12.720Z,7.90
2022-12-14T05:06:50.584Z,8.00
2022-12-14T05:09:23.405Z,8.00
2022-12-14T05:11:56.055Z,8.00
2022-12-14T05:14:31.096Z,8.10
2022-12-14T05:17:03.424Z,8.00
2022-12-14T05:19:34.848Z,7.90
2022-12-14T05:22:07.354Z,7.90
2022-12-14T05:24:35.530Z,8.00
2022-12-14T05:27:03.496Z,8.00
2022-12-14T05:29:31.586Z,8.00
2022-12-14T05:32:00.145Z,8.00
2022-12-14T05:34:28.298Z,7.90
2022-12-14T05:36:56.526Z,7.90
2022-12-14T05:39:26.356Z,7.90
2022-12-14T05:41:54.547Z,7.90
2022-12-14T05:44:25.076Z,7.90
2022-12-14T05:46:54.471Z,7.90
2022-12-14T05:49:22.785Z,7.90
2022-12-14T05:51:51.251Z,7.90
2022-12-14T05:54:19.846Z,7.90
2022-12-14T05:56:49.635Z,7.80
2022-12-14T05:59:18.217Z,7.80
2022-12-14T06:01:49.858Z,7.90
2022-12-14T06:04:19.548Z,7.90
2022-12-14T06:06:47.985Z,7.90
2022-12-14T06:09:17.396Z,7.90
2022-12-14T06:11:46.861Z,7.90
2022-12-14T06:14:17.323Z,8.00
2022-12-14T06:16:46.974Z,8.00
2022-12-14T06:19:16.170Z,7.90
2022-12-14T06:21:45.273Z,7.90
2022-12-14T06:24:14.128Z,8.00
2022-12-14T06:26:43.388Z,8.00
2022-12-14T06:29:17.142Z,8.00
2022-12-14T06:31:46.046Z,8.10
2022-12-14T06:34:22.228Z,8.10
2022-12-14T06:36:53.192Z,8.00
2022-12-14T06:39:21.516Z,8.00
2022-12-14T06:41:51.529Z,8.10
2022-12-14T06:44:21.595Z,8.10
2022-12-14T06:46:49.951Z,8.10
2022-12-14T06:49:18.468Z,8.10
2022-12-14T06:51:46.907Z,8.00
2022-12-14T06:54:16.585Z,8.00
2022-12-14T06:56:46.746Z,8.00
2022-12-14T06:59:16.358Z,8.00
2022-12-14T07:01:50.296Z,8.10
2022-12-14T07:04:21.699Z,8.00
2022-12-14T07:06:50.267Z,8.10
2022-12-14T07:09:18.367Z,8.10
2022-12-14T07:11:46.588Z,8.10
2022-12-14T07:14:17.077Z,8.10
2022-12-14T07:16:48.770Z,8.10
2022-12-14T07:19:18.097Z,8.10
2022-12-14T07:21:46.181Z,8.10
2022-12-14T07:24:14.958Z,8.00
2022-12-14T07:26:43.086Z,8.00
2022-12-14T07:29:12.391Z,8.00
2022-12-14T07:31:40.773Z,8.10
2022-12-14T07:34:13.357Z,8.00
2022-12-14T07:36:43.466Z,8.10
2022-12-14T07:39:15.665Z,8.10
2022-12-14T07:41:45.005Z,8.10
2022-12-14T07:44:15.523Z,8.10
2022-12-14T07:46:44.419Z,8.10
2022-12-14T07:49:14.098Z,8.10
2022-12-14T07:51:44.416Z,8.10
2022-12-14T07:54:13.978Z,8.20
2022-12-14T07:56:43.701Z,8.20
2022-12-14T07:59:15.616Z,8.20
2022-12-14T08:01:45.177Z,8.20
2022-12-14T08:04:17.348Z,8.20
2022-12-14T08:06:47.302Z,8.20
2022-12-14T08:09:16.297Z,8.20
2022-12-14T08:11:44.701Z,8.20
2022-12-14T08:14:15.065Z,8.20
2022-12-14T08:16:43.628Z,8.20
2022-12-14T08:19:13.797Z,8.30
2022-12-14T08:21:42.644Z,8.30
2022-12-14T08:24:12.177Z,8.40
2022-12-14T08:26:40.966Z,8.40
2022-12-14T08:29:09.706Z,8.40
2022-12-14T08:31:38.027Z,8.40
2022-12-14T08:34:06.606Z,8.40
2022-12-14T08:36:36.416Z,8.50
2022-12-14T08:39:07.058Z,8.50
2022-12-14T08:41:35.888Z,8.50
2022-12-14T08:44:05.476Z,8.50
2022-12-14T08:46:35.290Z,8.50
2022-12-14T08:49:03.847Z,8.60
2022-12-14T08:51:32.232Z,8.60
2022-12-14T08:54:01.997Z,8.60
2022-12-14T08:56:30.346Z,8.60
2022-12-14T08:58:58.698Z,8.60
2022-12-14T09:01:33.443Z,8.60
2022-12-14T09:04:08.272Z,8.60
2022-12-14T09:06:38.944Z,8.50
2022-12-14T09:09:16.059Z,8.50
2022-12-14T09:11:45.314Z,8.60
2022-12-14T09:14:13.826Z,8.60
2022-12-14T09:16:42.500Z,8.60
2022-12-14T09:19:10.806Z,8.70
2022-12-14T09:21:40.163Z,8.70
2022-12-14T09:24:10.305Z,8.80
2022-12-14T09:26:38.576Z,8.80
2022-12-14T09:29:06.906Z,8.80
2022-12-14T09:31:35.453Z,8.80
2022-12-14T09:34:04.497Z,8.80
2022-12-14T09:36:32.966Z,8.80
2022-12-14T09:39:01.670Z,8.80
2022-12-14T09:41:46.171Z,8.90
2022-12-14T09:44:26.280Z,8.90
2022-12-14T09:47:02.998Z,8.90
2022-12-14T09:49:34.267Z,8.90
2022-12-14T09:52:05.450Z,8.90
2022-12-14T09:54:37.087Z,9.00
2022-12-14T09:57:12.231Z,9.00
2022-12-14T09:59:41.121Z,9.00
2022-12-14T10:02:36.181Z,9.00
2022-12-14T10:05:21.352Z,9.00
2022-12-14T10:08:01.013Z,9.00
2022-12-14T10:10:37.365Z,9.00
2022-12-14T10:13:23.727Z,9.00
2022-12-14T10:16:00.463Z,9.10
2022-12-14T10:19:01.027Z,9.10
2022-12-14T10:21:42.747Z,9.10
2022-12-14T10:24:18.101Z,9.20
2022-12-14T10:26:51.012Z,9.20
2022-12-14T10:29:27.623Z,9.20
2022-12-14T10:31:59.500Z,9.20
2022-12-14T10:34:31.092Z,9.20
2022-12-14T10:37:12.633Z,9.20
2022-12-14T10:39:51.651Z,9.20
2022-12-14T10:42:27.383Z,9.30
2022-12-14T10:45:38.970Z,9.30
2022-12-14T10:48:05.185Z,9.30
2022-12-14T10:50:49.815Z,9.30
2022-12-14T10:53:24.353Z,9.30
2022-12-14T10:55:59.216Z,9.30
2022-12-14T10:58:28.297Z,9.40
2022-12-14T11:00:58.726Z,9.40
2022-12-14T11:03:29.508Z,9.40
2022-12-14T11:06:04.373Z,9.40
2022-12-14T11:08:41.992Z,9.30
2022-12-14T11:11:18.965Z,9.30
2022-12-14T11:13:53.271Z,9.30
2022-12-14T11:16:37.506Z,9.20
2022-12-14T11:19:17.715Z,9.20
2022-12-14T11:21:49.934Z,9.20
2022-12-14T11:24:23.940Z,9.20
2022-12-14T11:26:54.810Z,9.10
2022-12-14T11:29:31.060Z,9.10
2022-12-14T11:32:02.039Z,9.10
2022-12-14T11:34:35.024Z,9.10
2022-12-14T11:37:15.132Z,9.10
2022-12-14T11:39:44.092Z,9.10
2022-12-14T11:42:19.481Z,9.00
2022-12-14T11:44:50.392Z,9.10
2022-12-14T11:47:22.099Z,9.10
2022-12-14T11:49:52.573Z,9.10
2022-12-14T11:52:22.578Z,9.10
2022-12-14T11:55:11.342Z,9.10
2022-12-14T11:57:49.758Z,9.10
2022-12-14T12:00:29.837Z,9.10
2022-12-14T12:03:06.920Z,9.10
2022-12-14T12:05:41.231Z,9.10
2022-12-14T12:08:22.712Z,9.10
2022-12-14T12:10:53.700Z,9.10
2022-12-14T12:13:27.882Z,9.10
2022-12-14T12:15:58.863Z,9.10
2022-12-14T12:18:36.290Z,9.10
2022-12-14T12:21:13.217Z,9.10
2022-12-14T12:23:47.225Z,9.10
2022-12-14T12:26:20.179Z,9.10
2022-12-14T12:28:53.983Z,9.20
2022-12-14T12:31:27.154Z,9.20
2022-12-14T12:34:02.351Z,9.20
2022-12-14T12:36:33.626Z,9.30
2022-12-14T12:39:06.961Z,9.30
2022-12-14T12:41:46.915Z,9.40
2022-12-14T12:44:27.909Z,9.40
2022-12-14T12:47:24.759Z,9.50
2022-12-14T12:50:01.533Z,9.50
2022-12-14T12:52:35.140Z,9.60
2022-12-14T12:55:15.675Z,9.60
2022-12-14T12:57:47.643Z,9.60
2022-12-14T13:00:19.795Z,9.60
2022-12-14T13:02:52.051Z,9.60
2022-12-14T13:05:56.044Z,9.70
2022-12-14T13:08:23.978Z,9.70
2022-12-14T13:11:24.497Z,9.80
2022-12-14T13:13:49.487Z,9.80
2022-12-14T13:16:27.482Z,9.70
2022-12-14T13:19:25.445Z,9.70
2022-12-14T13:21:56.339Z,9.70
2022-12-14T13:24:28.464Z,9.70
2022-12-14T13:27:23.749Z,9.80
2022-12-14T13:30:23.125Z,9.80
2022-12-14T13:33:10.634Z,9.80
2022-12-14T13:35:53.798Z,9.90
2022-12-14T13:38:46.729Z,9.90
2022-12-14T13:41:27.776Z,10.00
2022-12-14T13:44:28.552Z,10.00
2022-12-14T13:47:05.663Z,10.10
2022-12-14T13:49:34.172Z,10.00
2022-12-14T13:52:01.931Z,10.00
2022-12-14T13:54:34.935Z,10.10
2022-12-14T13:57:05.638Z,10.10
2022-12-14T13:59:36.917Z,10.10
2022-12-14T14:02:06.313Z,10.20
2022-12-14T14:04:35.880Z,10.30
2022-12-14T14:07:40.083Z,10.30
2022-12-14T14:10:29.693Z,10.30
2022-12-14T14:12:57.523Z,10.30
2022-12-14T14:16:26.254Z,10.30
2022-12-14T14:18:47.464Z,10.20
2022-12-14T14:21:32.936Z,10.20
2022-12-14T14:24:01.812Z,10.10
2022-12-14T14:26:33.718Z,10.10
2022-12-14T14:29:23.231Z,10.10
2022-12-14T14:31:57.163Z,10.10
2022-12-14T14:34:35.209Z,10.00
2022-12-14T14:37:24.392Z,10.00
2022-12-14T14:40:13.306Z,10.10
2022-12-14T14:42:55.894Z,10.10
2022-12-14T14:45:37.103Z,10.10
2022-12-14T14:48:21.522Z,10.10
2022-12-14T14:50:56.961Z,10.10
2022-12-14T14:53:31.062Z,10.10
2022-12-14T14:56:12.516Z,10.10
2022-12-14T14:58:43.114Z,10.00
2022-12-14T15:01:22.699Z,10.00
2022-12-14T15:03:57.598Z,9.90
2022-12-14T15:06:28.551Z,9.90
2022-12-14T15:09:15.584Z,9.90
2022-12-14T15:11:46.282Z,9.80
2022-12-14T15:14:30.401Z,9.70
2022-12-14T15:16:58.223Z,9.60
2022-12-14T15:19:30.571Z,9.60
2022-12-14T15:22:02.412Z,9.60
2022-12-14T15:24:35.053Z,9.50
2022-12-14T15:27:12.933Z,9.50
2022-12-14T15:29:45.742Z,9.40
2022-12-14T15:32:19.024Z,9.40
2022-12-14T15:34:53.462Z,9.40
2022-12-14T15:37:26.671Z,9.30
2022-12-14T15:40:02.964Z,9.20
2022-12-14T15:42:30.742Z,9.10
2022-12-14T15:45:07.631Z,9.10
2022-12-14T15:47:35.313Z,9.00
2022-12-14T15:50:27.251Z,9.00
2022-12-14T15:52:58.341Z,9.00
2022-12-14T15:55:33.652Z,9.00
2022-12-14T15:58:07.418Z,9.00
2022-12-14T16:00:42.922Z,9.00
2022-12-14T16:03:19.911Z,9.00
2022-12-14T16:05:47.700Z,9.00
2022-12-14T16:08:15.824Z,9.00
2022-12-14T16:10:44.616Z,8.90
2022-12-14T16:13:19.782Z,8.90
2022-12-14T16:15:49.469Z,8.90
2022-12-14T16:18:18.386Z,8.80
2022-12-14T16:20:55.145Z,8.80
2022-12-14T16:23:30.371Z,8.80
2022-12-14T16:26:00.573Z,8.90
2022-12-14T16:28:31.320Z,8.90
2022-12-14T16:31:03.197Z,8.90
2022-12-14T16:33:34.155Z,8.90
2022-12-14T16:36:05.995Z,8.90
2022-12-14T16:38:39.341Z,8.90
2022-12-14T16:41:08.558Z,8.90
2022-12-14T16:43:39.824Z,8.90
2022-12-14T16:46:19.646Z,8.90
2022-12-14T16:49:03.832Z,8.90
2022-12-14T16:54:25.815Z,8.90
2022-12-14T16:57:00.464Z,9.00
2022-12-14T16:59:33.812Z,9.00
2022-12-14T17:02:03.060Z,9.00
2022-12-14T17:04:35.783Z,9.00
2022-12-14T17:07:04.513Z,8.90
2022-12-14T17:09:36.881Z,8.90
2022-12-14T17:12:13.243Z,8.90
2022-12-14T17:14:47.502Z,8.90
2022-12-14T17:17:22.340Z,9.00
2022-12-14T17:19:50.252Z,9.00
2022-12-14T17:22:23.866Z,9.00
2022-12-14T17:24:52.020Z,9.00
2022-12-14T17:27:26.658Z,9.00
2022-12-14T17:29:55.216Z,9.00
2022-12-14T17:32:29.059Z,9.10
2022-12-14T17:34:57.288Z,9.10
2022-12-14T17:37:28.698Z,9.10
2022-12-14T17:40:00.348Z,9.10
2022-12-14T17:42:28.190Z,9.10
2022-12-14T17:44:57.640Z,9.10
2022-12-14T17:47:26.855Z,9.10
2022-12-14T17:49:55.674Z,9.10
2022-12-14T17:52:28.326Z,9.20
2022-12-14T17:54:56.230Z,9.20
2022-12-14T17:57:25.749Z,9.20
2022-12-14T18:00:13.514Z,9.20
2022-12-14T18:02:45.582Z,9.20
2022-12-14T18:05:19.019Z,9.20
2022-12-14T18:07:46.889Z,9.20
2022-12-14T18:10:18.750Z,9.20
2022-12-14T18:12:52.041Z,9.20
2022-12-14T18:15:22.560Z,9.20
2022-12-14T18:17:52.100Z,9.20
2022-12-14T18:20:23.718Z,9.20
2022-12-14T18:22:52.291Z,9.20
2022-12-14T18:25:28.481Z,9.20
2022-12-14T18:27:57.520Z,9.20
2022-12-14T18:30:25.910Z,9.20
2022-12-14T18:32:55.584Z,9.20
2022-12-14T18:35:24.793Z,9.20
2022-12-14T18:37:52.955Z,9.20
2022-12-14T18:40:23.305Z,9.20
2022-12-14T18:42:51.485Z,9.20
2022-12-14T18:45:21.386Z,9.20
2022-12-14T18:47:49.616Z,9.20
2022-12-14T18:50:19.496Z,9.20
2022-12-14T18:52:48.072Z,9.20
2022-12-14T18:55:18.664Z,9.20
2022-12-14T18:57:47.823Z,9.20
2022-12-14T19:00:17.705Z,9.20
2022-12-14T19:02:49.606Z,9.20
2022-12-14T19:05:25.897Z,9.20
2022-12-14T19:07:54.809Z,9.20
2022-12-14T19:10:24.391Z,9.20
2022-12-14T19:12:52.237Z,9.20
2022-12-14T19:15:22.457Z,9.20
2022-12-14T19:17:51.163Z,9.20
2022-12-14T19:20:21.187Z,9.20
2022-12-14T19:22:49.650Z,9.20
2022-12-14T19:25:18.578Z,9.20
2022-12-14T19:30:35.158Z,9.20
2022-12-14T19:33:04.488Z,9.20
2022-12-14T19:35:34.617Z,9.20
2022-12-14T19:38:02.611Z,9.20
2022-12-14T19:40:30.578Z,9.20
2022-12-14T19:42:59.259Z,9.20
2022-12-14T19:45:27.248Z,9.20
2022-12-14T19:47:55.209Z,9.20
2022-12-14T19:50:23.249Z,9.20
2022-12-14T19:52:52.760Z,9.30
2022-12-14T19:55:20.593Z,9.20
2022-12-14T19:57:48.507Z,9.20
2022-12-14T20:00:16.626Z,9.20
2022-12-14T20:02:45.007Z,9.20
2022-12-14T20:05:18.188Z,9.20
2022-12-14T20:07:45.966Z,9.10
2022-12-14T20:10:15.179Z,9.10
2022-12-14T20:12:44.271Z,9.10
2022-12-14T20:15:13.399Z,9.10
2022-12-14T20:17:41.188Z,9.10
2022-12-14T20:20:10.660Z,9.10
2022-12-14T20:22:38.681Z,9.10
2022-12-14T20:25:10.580Z,9.10
2022-12-14T20:27:40.918Z,9.10
2022-12-14T20:30:12.031Z,9.10
2022-12-14T20:32:41.764Z,9.10
2022-12-14T20:35:12.345Z,9.10
2022-12-14T20:37:40.455Z,9.10
2022-12-14T20:40:09.849Z,9.10
2022-12-14T20:42:37.811Z,9.10
2022-12-14T20:45:08.771Z,9.10
2022-12-14T20:47:36.919Z,9.10
2022-12-14T20:50:05.646Z,9.10
2022-12-14T20:52:34.255Z,9.10
2022-12-14T20:55:02.565Z,9.20
2022-12-14T20:57:33.453Z,9.20
2022-12-14T21:00:01.420Z,9.20
2022-12-14T21:02:30.921Z,9.20
2022-12-14T21:04:58.876Z,9.20
2022-12-14T21:07:26.799Z,9.20
2022-12-14T21:09:54.671Z,9.20
2022-12-14T21:12:22.522Z,9.20
2022-12-14T21:14:53.380Z,9.20
2022-12-14T21:17:22.990Z,9.20
2022-12-14T21:19:54.923Z,9.20
2022-12-14T21:22:25.140Z,9.20
2022-12-14T21:25:02.941Z,9.20
2022-12-14T21:27:32.582Z,9.20
2022-12-14T21:30:00.888Z,9.20
2022-12-14T21:32:30.032Z,9.20
2022-12-14T21:35:00.392Z,9.20
2022-12-14T21:37:28.984Z,9.10
2022-12-14T21:39:57.476Z,9.10
2022-12-14T21:42:27.152Z,9.10
2022-12-14T21:44:56.474Z,9.20
2022-12-14T21:47:26.589Z,9.20
2022-12-14T21:49:55.383Z,9.20
2022-12-14T21:52:27.295Z,9.20
2022-12-14T21:54:55.970Z,9.20
2022-12-14T21:57:49.365Z,9.10
2022-12-14T22:00:19.537Z,9.10
2022-12-14T22:02:48.020Z,9.10
2022-12-14T22:05:16.691Z,9.10
2022-12-14T22:07:47.334Z,9.10
2022-12-14T22:10:19.956Z,9.10
2022-12-14T22:12:51.253Z,9.10
2022-12-14T22:15:19.613Z,9.10
2022-12-14T22:18:00.496Z,9.10
2022-12-14T22:20:29.055Z,9.20
2022-12-14T22:23:00.424Z,9.20
2022-12-14T22:25:28.937Z,9.10
2022-12-14T22:27:57.298Z,9.20
2022-12-14T22:30:31.571Z,9.10
2022-12-14T22:33:00.565Z,9.10
2022-12-14T22:35:28.822Z,9.10
2022-12-14T22:38:00.003Z,9.10
2022-12-14T22:40:28.586Z,9.10
2022-12-14T22:42:57.022Z,9.10
2022-12-14T22:45:25.821Z,9.10
2022-12-14T22:47:54.482Z,9.10
2022-12-14T22:50:23.540Z,9.10
2022-12-14T22:52:52.494Z,9.10
2022-12-14T22:55:24.936Z,9.10
2022-12-14T22:57:54.890Z,9.10
2022-12-14T23:00:23.473Z,9.10
2022-12-14T23:02:52.361Z,9.10
2022-12-14T23:05:21.017Z,9.10
2022-12-14T23:07:49.741Z,9.10
2022-12-14T23:10:37.162Z,9.10
2022-12-14T23:13:26.478Z,9.10
2022-12-14T23:16:13.731Z,9.10
2022-12-14T23:19:00.319Z,9.10
2022-12-14T23:21:47.242Z,9.10
2022-12-14T23:24:35.600Z,9.10
2022-12-14T23:27:22.889Z,9.10
2022-12-14T23:30:12.151Z,9.10
2022-12-14T23:32:59.710Z,9.10
2022-12-14T23:35:47.461Z,9.10
2022-12-14T23:38:34.825Z,9.20
2022-12-14T23:41:21.825Z,9.10
2022-12-14T23:44:12.106Z,9.10
2022-12-14T23:47:00.588Z,9.10
2022-12-14T23:49:47.535Z,9.20
2022-12-14T23:52:34.289Z,9.20
2022-12-14T23:55:20.758Z,9.20
2022-12-14T23:58:08.122Z,9.20
